createdAt,value
2023-01-29T00:01:44.110Z,14.93
2023-01-29T00:04:11.530Z,13.15
2023-01-29T00:06:40.567Z,17.87
2023-01-29T00:09:08.383Z,13.98
2023-01-29T00:11:36.634Z,14.10
2023-01-29T00:14:05.017Z,11.10
2023-01-29T00:16:32.664Z,15.15
2023-01-29T00:19:05.658Z,13.68
2023-01-29T00:21:34.065Z,12.20
2023-01-29T00:24:03.105Z,13.48
2023-01-29T00:26:30.969Z,10.38
2023-01-29T00:29:00.934Z,13.20
2023-01-29T00:31:29.277Z,10.82
2023-01-29T00:33:57.856Z,12.95
2023-01-29T00:36:26.674Z,11.53
2023-01-29T00:38:59.018Z,12.43
2023-01-29T00:41:51.935Z,12.68
2023-01-29T00:44:38.379Z,11.43
2023-01-29T00:47:09.588Z,10.88
2023-01-29T00:49:51.403Z,11.73
2023-01-29T00:52:26.763Z,13.28
2023-01-29T00:54:57.050Z,10.75
2023-01-29T00:57:28.270Z,12.55
2023-01-29T00:59:56.184Z,12.63
2023-01-29T01:02:43.250Z,13.78
2023-01-29T01:05:15.123Z,12.15
2023-01-29T01:07:45.182Z,10.63
2023-01-29T01:10:21.675Z,12.07
2023-01-29T01:13:01.819Z,13.08
2023-01-29T01:15:41.654Z,12.43
2023-01-29T01:18:09.268Z,12.70
2023-01-29T01:20:37.691Z,12.30
2023-01-29T01:23:05.798Z,11.78
2023-01-29T01:25:33.534Z,14.13
2023-01-29T01:28:01.559Z,12.40
2023-01-29T01:30:29.570Z,12.90
2023-01-29T01:32:57.085Z,12.05
2023-01-29T01:35:24.950Z,12.37
2023-01-29T01:37:52.751Z,12.53
2023-01-29T01:40:23.064Z,14.75
2023-01-29T01:43:00.317Z,14.90
2023-01-29T01:45:36.500Z,14.30
2023-01-29T01:48:26.700Z,14.87
2023-01-29T01:51:00.938Z,12.35
2023-01-29T01:53:37.367Z,13.10
2023-01-29T01:56:08.651Z,13.45
2023-01-29T01:58:40.552Z,13.68
2023-01-29T02:04:28.744Z,13.18
2023-01-29T02:07:18.595Z,11.70
2023-01-29T02:10:04.653Z,14.18
2023-01-29T02:12:33.602Z,13.18
2023-01-29T02:15:01.395Z,12.45
2023-01-29T02:17:29.239Z,14.15
2023-01-29T02:20:11.993Z,15.48
2023-01-29T02:22:49.405Z,12.58
2023-01-29T02:25:40.410Z,15.18
2023-01-29T02:28:27.403Z,13.03
2023-01-29T02:31:09.855Z,12.47
2023-01-29T02:34:11.446Z,12.65
2023-01-29T02:36:57.908Z,12.82
2023-01-29T02:39:38.597Z,12.13
2023-01-29T02:42:19.193Z,12.23
2023-01-29T02:44:54.640Z,12.73
2023-01-29T02:47:25.861Z,12.18
2023-01-29T02:50:03.535Z,12.53
2023-01-29T02:52:54.384Z,14.18
2023-01-29T02:55:25.958Z,13.00
2023-01-29T02:57:57.711Z,12.82
2023-01-29T03:00:31.977Z,13.35
2023-01-29T03:03:16.380Z,13.62
2023-01-29T03:06:05.885Z,13.10
2023-01-29T03:08:42.006Z,16.48
2023-01-29T03:11:16.446Z,13.20
2023-01-29T03:13:51.101Z,12.15
2023-01-29T03:16:28.084Z,14.40
2023-01-29T03:18:59.551Z,13.65
2023-01-29T03:21:53.783Z,13.22
2023-01-29T03:24:55.892Z,15.37
2023-01-29T03:27:49.705Z,12.88
2023-01-29T03:30:38.761Z,14.47
2023-01-29T03:33:18.920Z,12.28
2023-01-29T03:36:10.079Z,14.18
2023-01-29T03:38:37.513Z,15.43
2023-01-29T03:41:21.629Z,13.50
2023-01-29T03:44:00.823Z,16.70
2023-01-29T03:46:36.140Z,13.28
2023-01-29T03:49:14.555Z,14.10
2023-01-29T03:52:03.283Z,14.98
2023-01-29T03:54:57.839Z,16.20
2023-01-29T03:57:39.066Z,13.60
2023-01-29T04:00:21.823Z,12.88
2023-01-29T04:03:04.542Z,16.87
2023-01-29T04:05:37.245Z,15.90
2023-01-29T04:08:25.009Z,15.25
2023-01-29T04:10:56.228Z,12.53
2023-01-29T04:13:25.452Z,14.47
2023-01-29T04:15:58.849Z,15.13
2023-01-29T04:18:28.542Z,15.20
2023-01-29T04:21:09.867Z,13.35
2023-01-29T04:23:38.848Z,13.53
2023-01-29T04:26:31.394Z,15.03
2023-01-29T04:29:03.703Z,17.82
2023-01-29T04:31:57.327Z,15.08
2023-01-29T04:34:34.904Z,15.50
2023-01-29T04:37:14.691Z,14.60
2023-01-29T04:39:52.633Z,14.85
2023-01-29T04:42:24.465Z,14.55
2023-01-29T04:45:20.749Z,15.25
2023-01-29T04:47:53.350Z,14.43
2023-01-29T04:50:43.218Z,12.95
2023-01-29T04:53:17.695Z,13.55
2023-01-29T04:55:49.116Z,13.22
2023-01-29T04:58:29.322Z,13.43
2023-01-29T05:00:58.970Z,14.58
2023-01-29T05:03:28.901Z,17.35
2023-01-29T05:06:01.519Z,16.67
2023-01-29T05:08:31.928Z,15.03
2023-01-29T05:11:00.111Z,15.88
2023-01-29T05:16:37.777Z,16.62
2023-01-29T05:19:05.654Z,16.37
2023-01-29T05:21:34.190Z,16.05
2023-01-29T05:24:20.711Z,16.70
2023-01-29T05:27:08.640Z,15.78
2023-01-29T05:29:36.225Z,15.25
2023-01-29T05:32:05.555Z,15.78
2023-01-29T05:34:41.813Z,19.00
2023-01-29T05:37:11.183Z,19.30
2023-01-29T05:39:38.704Z,16.30
2023-01-29T05:42:06.809Z,16.32
2023-01-29T05:44:34.251Z,19.10
2023-01-29T05:47:03.248Z,16.30
2023-01-29T05:49:30.898Z,16.60
2023-01-29T05:51:58.913Z,17.10
2023-01-29T05:54:27.092Z,18.40
2023-01-29T05:57:01.531Z,18.37
2023-01-29T06:01:59.053Z,15.90
2023-01-29T06:04:26.899Z,16.85
2023-01-29T06:06:54.513Z,17.40
2023-01-29T06:09:29.847Z,15.93
2023-01-29T06:11:57.731Z,20.43
2023-01-29T06:14:48.172Z,19.98
2023-01-29T06:17:16.030Z,20.37
2023-01-29T06:19:43.736Z,18.98
2023-01-29T06:22:18.788Z,20.75
2023-01-29T06:24:46.905Z,18.48
2023-01-29T06:27:14.712Z,17.98
2023-01-29T06:29:46.352Z,19.25
2023-01-29T06:32:17.216Z,18.37
2023-01-29T06:34:44.764Z,18.90
2023-01-29T06:37:13.664Z,20.60
2023-01-29T06:39:41.461Z,18.62
2023-01-29T06:42:10.445Z,19.70
2023-01-29T06:44:37.970Z,18.05
2023-01-29T06:47:06.182Z,19.92
2023-01-29T06:49:33.630Z,18.98
2023-01-29T06:52:01.272Z,17.62
2023-01-29T06:54:29.646Z,18.37
2023-01-29T06:56:59.602Z,19.05
2023-01-29T06:59:27.476Z,20.00
2023-01-29T07:01:55.008Z,18.02
2023-01-29T07:04:23.078Z,18.75
2023-01-29T07:06:50.921Z,20.60
2023-01-29T07:09:18.951Z,17.57
2023-01-29T07:11:46.755Z,18.25
2023-01-29T07:14:14.463Z,21.05
2023-01-29T07:16:41.897Z,21.20
2023-01-29T07:19:09.443Z,19.05
2023-01-29T07:22:01.059Z,22.10
2023-01-29T07:24:29.969Z,21.90
2023-01-29T07:26:57.828Z,24.57
2023-01-29T07:29:25.627Z,19.55
2023-01-29T07:31:53.738Z,18.62
2023-01-29T07:34:21.870Z,17.60
2023-01-29T07:36:49.599Z,19.40
2023-01-29T07:39:17.867Z,18.10
2023-01-29T07:41:45.141Z,18.02
2023-01-29T07:44:14.993Z,20.88
2023-01-29T07:46:42.699Z,19.23
2023-01-29T07:49:10.819Z,18.65
2023-01-29T07:51:38.533Z,19.48
2023-01-29T07:54:06.814Z,21.07
2023-01-29T07:56:35.059Z,18.95
2023-01-29T07:59:02.560Z,26.10
2023-01-29T08:01:30.194Z,17.60
2023-01-29T08:04:00.705Z,16.75
2023-01-29T08:06:28.248Z,20.43
2023-01-29T08:08:57.515Z,22.05
2023-01-29T08:11:45.512Z,24.77
2023-01-29T08:14:13.355Z,21.07
2023-01-29T08:16:41.382Z,19.32
2023-01-29T08:19:09.044Z,19.92
2023-01-29T08:21:36.749Z,19.80
2023-01-29T08:24:05.485Z,21.62
2023-01-29T08:26:33.820Z,25.43
2023-01-29T08:29:05.059Z,21.75
2023-01-29T08:31:33.733Z,20.88
2023-01-29T08:34:05.187Z,18.82
2023-01-29T08:36:32.974Z,19.70
2023-01-29T08:39:02.182Z,19.85
2023-01-29T08:41:29.967Z,21.65
2023-01-29T08:44:00.434Z,23.42
2023-01-29T08:46:28.328Z,20.02
2023-01-29T08:48:56.377Z,21.02
2023-01-29T08:51:26.715Z,24.67
2023-01-29T08:54:13.234Z,23.12
2023-01-29T08:56:40.802Z,22.32
2023-01-29T08:59:09.726Z,24.95
2023-01-29T09:01:40.191Z,21.97
2023-01-29T09:04:08.434Z,20.43
2023-01-29T09:06:36.021Z,22.05
2023-01-29T09:09:03.742Z,20.52
2023-01-29T09:11:35.812Z,19.07
2023-01-29T09:14:03.768Z,18.95
2023-01-29T09:16:32.078Z,20.23
2023-01-29T09:19:00.479Z,20.60
2023-01-29T09:21:28.051Z,22.65
2023-01-29T09:23:55.863Z,20.82
2023-01-29T09:26:24.097Z,15.70
2023-01-29T09:28:51.445Z,19.57
2023-01-29T09:31:23.041Z,17.37
2023-01-29T09:33:51.335Z,16.75
2023-01-29T09:36:19.242Z,13.95
2023-01-29T09:38:47.049Z,15.35
2023-01-29T09:41:41.849Z,15.83
2023-01-29T09:44:13.257Z,18.77
2023-01-29T09:46:48.030Z,13.18
2023-01-29T09:49:22.404Z,14.50
2023-01-29T09:54:24.623Z,10.85
2023-01-29T09:57:02.823Z,15.53
2023-01-29T09:59:32.692Z,14.43
2023-01-29T10:02:09.991Z,13.85
2023-01-29T10:05:00.190Z,15.23
2023-01-29T10:08:05.794Z,15.65
2023-01-29T10:11:07.579Z,14.33
2023-01-29T10:13:58.657Z,12.98
2023-01-29T10:16:46.782Z,15.10
2023-01-29T10:19:30.153Z,19.27
2023-01-29T10:22:04.452Z,16.60
2023-01-29T10:27:16.152Z,15.10
2023-01-29T10:29:46.219Z,15.65
2023-01-29T10:32:19.708Z,15.03
2023-01-29T10:35:03.486Z,15.55
2023-01-29T10:37:42.714Z,16.17
2023-01-29T10:40:23.153Z,15.80
2023-01-29T10:43:35.208Z,14.70
2023-01-29T10:46:23.695Z,16.10
2023-01-29T10:48:58.278Z,16.75
2023-01-29T10:51:48.107Z,15.30
2023-01-29T10:54:19.499Z,17.05
2023-01-29T10:57:05.806Z,19.42
2023-01-29T10:59:58.255Z,19.23
2023-01-29T11:02:27.114Z,21.95
2023-01-29T11:04:54.644Z,20.48
2023-01-29T11:07:23.590Z,17.20
2023-01-29T11:10:04.092Z,15.88
2023-01-29T11:12:34.091Z,13.55
2023-01-29T11:15:14.789Z,10.72
2023-01-29T11:18:07.363Z,17.55
2023-01-29T11:20:35.120Z,14.55
2023-01-29T11:23:07.694Z,13.90
2023-01-29T11:25:37.122Z,17.82
2023-01-29T11:28:06.496Z,17.42
2023-01-29T11:30:40.614Z,18.70
2023-01-29T11:33:24.883Z,18.52
2023-01-29T11:35:58.370Z,15.65
2023-01-29T11:38:28.515Z,14.40
2023-01-29T11:41:12.144Z,17.50
2023-01-29T11:43:41.110Z,19.15
2023-01-29T11:46:14.759Z,18.17
2023-01-29T11:48:56.407Z,16.35
2023-01-29T11:51:28.648Z,16.40
2023-01-29T11:56:37.569Z,20.02
2023-01-29T11:59:06.548Z,16.30
2023-01-29T12:01:37.894Z,19.25
2023-01-29T12:04:24.152Z,19.82
2023-01-29T12:06:54.154Z,17.82
2023-01-29T12:09:26.175Z,18.85
2023-01-29T12:11:54.402Z,19.27
2023-01-29T12:14:36.761Z,19.00
2023-01-29T12:17:20.288Z,16.27
2023-01-29T12:20:00.612Z,21.73
2023-01-29T12:22:38.348Z,20.88
2023-01-29T12:25:10.172Z,19.23
2023-01-29T12:27:58.425Z,16.73
2023-01-29T12:30:35.978Z,16.07
2023-01-29T12:33:16.171Z,18.27
2023-01-29T12:35:51.388Z,16.57
2023-01-29T12:38:23.665Z,18.52
2023-01-29T12:40:58.364Z,17.70
2023-01-29T12:43:49.536Z,21.05
2023-01-29T12:46:33.432Z,22.20
2023-01-29T12:49:04.634Z,21.27
2023-01-29T12:51:36.536Z,19.42
2023-01-29T12:54:13.975Z,18.25
2023-01-29T12:56:46.755Z,18.77
2023-01-29T12:59:30.452Z,16.48
2023-01-29T13:02:23.405Z,20.17
2023-01-29T13:05:00.520Z,18.87
2023-01-29T13:07:35.297Z,18.15
2023-01-29T13:10:07.775Z,16.23
2023-01-29T13:12:36.803Z,16.50
2023-01-29T13:15:23.296Z,17.02
2023-01-29T13:18:00.555Z,19.95
2023-01-29T13:20:34.537Z,15.00
2023-01-29T13:23:06.005Z,17.15
2023-01-29T13:25:34.138Z,17.98
2023-01-29T13:28:04.982Z,15.78
2023-01-29T13:30:36.565Z,18.80
2023-01-29T13:33:10.225Z,21.20
2023-01-29T13:35:42.037Z,21.20
2023-01-29T13:38:29.092Z,21.00
2023-01-29T13:41:03.911Z,16.32
2023-01-29T13:46:12.001Z,16.37
2023-01-29T13:48:45.247Z,22.07
2023-01-29T13:51:17.145Z,19.77
2023-01-29T13:53:48.721Z,17.45
2023-01-29T13:56:39.189Z,20.17
2023-01-29T13:59:09.336Z,22.37
2023-01-29T14:01:53.153Z,18.48
2023-01-29T14:04:34.432Z,22.82
2023-01-29T14:07:06.638Z,18.85
2023-01-29T14:09:44.331Z,20.52
2023-01-29T14:12:28.234Z,20.30
2023-01-29T14:15:00.452Z,21.12
2023-01-29T14:17:29.367Z,20.65
2023-01-29T14:20:07.803Z,19.12
2023-01-29T14:22:38.328Z,19.35
2023-01-29T14:25:07.636Z,18.37
2023-01-29T14:27:37.689Z,19.15
2023-01-29T14:30:11.987Z,18.25
2023-01-29T14:32:40.840Z,17.95
2023-01-29T14:35:16.367Z,18.95
2023-01-29T14:37:47.521Z,17.80
2023-01-29T14:40:22.114Z,19.70
2023-01-29T14:45:35.259Z,18.73
2023-01-29T14:48:21.957Z,17.37
2023-01-29T14:50:52.258Z,18.05
2023-01-29T14:53:45.990Z,17.45
2023-01-29T14:56:25.340Z,17.95
2023-01-29T14:59:00.119Z,16.55
2023-01-29T15:01:38.041Z,17.85
2023-01-29T15:04:13.092Z,17.67
2023-01-29T15:07:04.631Z,16.90
2023-01-29T15:09:51.049Z,19.67
2023-01-29T15:12:43.563Z,18.92
2023-01-29T15:15:35.099Z,23.07
2023-01-29T15:18:15.365Z,16.95
2023-01-29T15:21:05.767Z,21.10
2023-01-29T15:23:35.048Z,20.10
2023-01-29T15:26:09.611Z,19.45
2023-01-29T15:28:38.848Z,20.35
2023-01-29T15:31:15.297Z,19.55
2023-01-29T15:33:46.162Z,16.40
2023-01-29T15:36:23.812Z,20.32
2023-01-29T15:39:25.122Z,19.48
2023-01-29T15:42:12.139Z,19.75
2023-01-29T15:44:45.935Z,18.55
2023-01-29T15:47:23.056Z,19.87
2023-01-29T15:49:51.611Z,22.22
2023-01-29T15:52:26.970Z,19.17
2023-01-29T15:57:44.242Z,21.15
2023-01-29T16:00:26.510Z,23.85
2023-01-29T16:03:03.409Z,22.35
2023-01-29T16:05:34.880Z,25.12
2023-01-29T16:08:03.497Z,25.40
2023-01-29T16:10:33.002Z,22.30
2023-01-29T16:13:01.587Z,23.62
2023-01-29T16:15:40.582Z,24.85
2023-01-29T16:18:39.562Z,28.98
2023-01-29T16:21:33.216Z,23.52
2023-01-29T16:27:08.805Z,26.57
2023-01-29T16:29:36.666Z,27.42
2023-01-29T16:32:06.683Z,24.85
2023-01-29T16:34:43.305Z,26.68
2023-01-29T16:37:24.555Z,25.43
2023-01-29T16:39:53.185Z,24.02
2023-01-29T16:42:26.398Z,26.52
2023-01-29T16:45:03.244Z,26.55
2023-01-29T16:47:34.084Z,27.60
2023-01-29T16:50:05.267Z,28.15
2023-01-29T16:52:35.273Z,25.43
2023-01-29T16:55:21.808Z,32.13
2023-01-29T16:57:54.943Z,31.07
2023-01-29T17:00:26.459Z,32.20
2023-01-29T17:02:57.887Z,32.48
2023-01-29T17:05:34.315Z,33.25
2023-01-29T17:08:07.205Z,28.92
2023-01-29T17:10:36.528Z,30.02
2023-01-29T17:13:08.182Z,29.82
2023-01-29T17:15:45.804Z,27.73
2023-01-29T17:18:20.538Z,30.77
2023-01-29T17:23:17.241Z,27.25
2023-01-29T17:25:46.556Z,26.20
2023-01-29T17:28:18.048Z,30.32
2023-01-29T17:31:00.342Z,29.85
2023-01-29T17:33:22.128Z,26.93
2023-01-29T17:35:51.285Z,24.02
2023-01-29T17:38:26.485Z,31.23
2023-01-29T17:41:03.345Z,30.15
2023-01-29T17:43:33.045Z,28.95
2023-01-29T17:46:00.782Z,32.28
2023-01-29T17:48:30.595Z,26.62
2023-01-29T17:51:02.755Z,27.52
2023-01-29T17:53:45.509Z,28.12
2023-01-29T17:56:02.528Z,27.75
2023-01-29T17:58:30.457Z,28.95
2023-01-29T18:00:59.101Z,30.68
2023-01-29T18:03:28.175Z,31.35
2023-01-29T18:05:56.125Z,30.40
2023-01-29T18:08:36.221Z,28.35
2023-01-29T18:11:24.129Z,27.62
2023-01-29T18:14:14.156Z,27.65
2023-01-29T18:16:39.342Z,28.57
2023-01-29T18:19:15.751Z,32.85
2023-01-29T18:21:43.547Z,31.37
2023-01-29T18:24:11.796Z,30.43
2023-01-29T18:26:39.991Z,35.13
2023-01-29T18:29:08.143Z,31.95
2023-01-29T18:31:42.951Z,29.10
2023-01-29T18:36:40.262Z,35.55
2023-01-29T18:39:08.180Z,33.15
2023-01-29T18:41:36.002Z,31.75
2023-01-29T18:44:03.660Z,33.42
2023-01-29T18:46:32.098Z,28.77
2023-01-29T18:48:59.858Z,32.40
2023-01-29T18:51:27.593Z,33.02
2023-01-29T18:54:05.786Z,28.38
2023-01-29T18:57:06.269Z,32.53
2023-01-29T18:59:25.332Z,31.17
2023-01-29T19:01:54.285Z,33.30
2023-01-29T19:04:22.279Z,34.15
2023-01-29T19:06:51.242Z,30.52
2023-01-29T19:09:22.297Z,31.73
2023-01-29T19:11:50.266Z,34.23
2023-01-29T19:14:18.827Z,29.37
2023-01-29T19:16:46.727Z,30.92
2023-01-29T19:19:34.530Z,30.02
2023-01-29T19:22:05.484Z,35.38
2023-01-29T19:24:35.550Z,33.48
2023-01-29T19:27:04.021Z,34.30
2023-01-29T19:29:33.083Z,32.17
2023-01-29T19:32:00.862Z,32.88
2023-01-29T19:34:28.719Z,33.78
2023-01-29T19:36:57.165Z,33.58
2023-01-29T19:39:38.330Z,32.98
2023-01-29T19:42:06.679Z,36.13
2023-01-29T19:44:35.445Z,35.65
2023-01-29T19:47:04.143Z,31.90
2023-01-29T19:49:35.430Z,31.65
2023-01-29T19:52:04.066Z,31.12
2023-01-29T19:54:31.655Z,32.93
2023-01-29T19:56:59.724Z,32.28
2023-01-29T19:59:27.517Z,30.75
2023-01-29T20:01:55.802Z,32.13
2023-01-29T20:04:25.015Z,33.60
2023-01-29T20:09:32.705Z,31.57
2023-01-29T20:12:00.210Z,32.10
2023-01-29T20:14:28.029Z,37.15
2023-01-29T20:16:56.348Z,33.02
2023-01-29T20:19:25.304Z,31.25
2023-01-29T20:21:53.749Z,33.80
2023-01-29T20:24:25.709Z,32.67
2023-01-29T20:26:53.494Z,38.70
2023-01-29T20:29:23.226Z,32.63
2023-01-29T20:31:51.917Z,34.43
2023-01-29T20:34:20.025Z,30.88
2023-01-29T20:36:47.838Z,28.73
2023-01-29T20:39:16.061Z,33.73
2023-01-29T20:41:44.105Z,33.48
2023-01-29T20:44:32.275Z,36.48
2023-01-29T20:47:01.851Z,32.40
2023-01-29T20:49:32.357Z,33.45
2023-01-29T20:52:00.150Z,31.97
2023-01-29T20:54:41.388Z,32.08
2023-01-29T20:57:09.075Z,33.25
2023-01-29T20:59:36.955Z,31.20
2023-01-29T21:02:06.228Z,31.48
2023-01-29T21:04:34.678Z,31.85
2023-01-29T21:07:03.032Z,30.00
2023-01-29T21:09:32.271Z,32.35
2023-01-29T21:11:59.598Z,35.73
2023-01-29T21:14:28.307Z,30.95
2023-01-29T21:16:59.424Z,30.45
2023-01-29T21:19:28.099Z,28.10
2023-01-29T21:21:58.203Z,32.55
2023-01-29T21:24:27.064Z,32.33
2023-01-29T21:26:54.355Z,35.00
2023-01-29T21:29:22.585Z,31.52
2023-01-29T21:31:50.426Z,35.43
2023-01-29T21:34:18.574Z,30.17
2023-01-29T21:36:47.037Z,28.65
2023-01-29T21:39:17.959Z,32.28
2023-01-29T21:42:17.862Z,28.02
2023-01-29T21:44:46.334Z,31.45
2023-01-29T21:47:14.215Z,29.90
2023-01-29T21:49:44.102Z,36.50
2023-01-29T21:52:13.269Z,31.87
2023-01-29T21:54:54.611Z,27.13
2023-01-29T21:57:24.219Z,30.57
2023-01-29T21:59:53.639Z,29.67
2023-01-29T22:02:22.881Z,32.83
2023-01-29T22:04:54.168Z,28.25
2023-01-29T22:07:32.593Z,34.58
2023-01-29T22:10:01.756Z,27.60
2023-01-29T22:12:30.051Z,29.35
2023-01-29T22:14:57.575Z,28.83
2023-01-29T22:17:26.162Z,32.53
2023-01-29T22:19:54.049Z,28.80
2023-01-29T22:22:22.013Z,27.00
2023-01-29T22:24:54.425Z,31.05
2023-01-29T22:27:22.999Z,29.67
2023-01-29T22:29:52.093Z,33.30
2023-01-29T22:32:21.123Z,28.25
2023-01-29T22:34:48.925Z,30.45
2023-01-29T22:37:16.923Z,27.42
2023-01-29T22:39:51.645Z,31.80
2023-01-29T22:44:51.775Z,31.48
2023-01-29T22:47:19.377Z,31.70
2023-01-29T22:49:51.571Z,31.73
2023-01-29T22:52:35.226Z,32.78
2023-01-29T22:55:03.098Z,30.90
2023-01-29T22:57:32.627Z,29.40
2023-01-29T23:00:00.445Z,29.60
2023-01-29T23:02:27.835Z,31.42
2023-01-29T23:04:56.385Z,27.42
2023-01-29T23:07:24.305Z,25.72
2023-01-29T23:09:52.095Z,29.27
2023-01-29T23:12:20.240Z,27.90
2023-01-29T23:14:48.055Z,27.98
2023-01-29T23:17:16.680Z,31.73
2023-01-29T23:19:44.538Z,27.67
2023-01-29T23:22:12.406Z,29.98
2023-01-29T23:24:40.432Z,27.98
2023-01-29T23:27:14.794Z,27.95
2023-01-29T23:29:59.768Z,26.50
2023-01-29T23:32:28.040Z,26.17
2023-01-29T23:34:55.525Z,28.98
2023-01-29T23:37:23.561Z,28.12
2023-01-29T23:39:51.181Z,29.45
2023-01-29T23:42:19.063Z,29.45
2023-01-29T23:44:46.468Z,29.95
2023-01-29T23:47:14.020Z,27.67
2023-01-29T23:49:42.375Z,28.27
2023-01-29T23:52:10.573Z,31.20
2023-01-29T23:54:58.236Z,27.30
2023-01-29T23:57:25.995Z,29.63
2023-01-29T23:59:53.425Z,26.30
